Time;durP1;ratioP1;P1;durP2;ratioP2;P2;SDS_P1;SDS_P2;PMS_P1;PMS_P2;Temp;Humidity;BMP_temperature;BMP_pressure;BME280_temperature;BME280_humidity;BME280_pressure;Samples;Min_cycle;Max_cycle;Signal;HPM_P1;HPM_P2
2022/12/30 00:01:43;;;;;;;32.22;2.58;;;;;;;;;;5056862;28;20025;-57
2022/12/30 00:04:09;;;;;;;25.13;3.67;;;;;;;;;;5056888;28;20035;-57
2022/12/30 00:06:34;;;;;;;18.20;3.10;;;;;;;;;;5056902;28;20638;-56
2022/12/30 00:09:00;;;;;;;16.25;2.95;;;;;;;;;;5054831;28;20109;-57
2022/12/30 00:11:26;;;;;;;21.90;3.42;;;;;;;;;;5054937;28;20332;-57
2022/12/30 00:33:07;;;;;;;16.42;3.40;;;;;;;;;;5054429;28;20525;-55
2022/12/30 00:35:33;;;;;;;17.15;3.20;;;;;;;;;;5056284;28;20758;-57
2022/12/30 00:37:58;;;;;;;28.83;3.95;;;;;;;;;;5056349;28;20085;-56
2022/12/30 00:40:23;;;;;;;23.52;3.10;;;;;;;;;;5055544;28;20017;-56
2022/12/30 00:45:32;;;;;;;15.15;3.08;;;;;;;;;;5054367;28;20082;-57
2022/12/30 00:47:57;;;;;;;18.25;3.22;;;;;;;;;;5054532;28;20044;-56
2022/12/30 00:58:34;;;;;;;11.30;2.63;;;;;;;;;;5056424;28;20035;-55
2022/12/30 01:01:00;;;;;;;22.52;3.17;;;;;;;;;;5058911;28;20021;-57
2022/12/30 01:03:25;;;;;;;23.55;3.80;;;;;;;;;;5059385;28;20035;-55
2022/12/30 01:05:50;;;;;;;26.23;3.58;;;;;;;;;;5059842;28;20041;-55
2022/12/30 01:08:16;;;;;;;25.13;3.75;;;;;;;;;;5059331;28;20037;-56
2022/12/30 01:10:41;;;;;;;20.27;3.10;;;;;;;;;;5059983;28;20382;-55
2022/12/30 01:13:06;;;;;;;22.33;3.97;;;;;;;;;;5058595;28;20032;-56
2022/12/30 01:15:31;;;;;;;25.55;3.83;;;;;;;;;;5060349;28;20017;-56
2022/12/30 01:17:57;;;;;;;18.02;2.83;;;;;;;;;;5060074;28;20039;-55
2022/12/30 01:20:22;;;;;;;24.15;3.85;;;;;;;;;;5059693;28;20047;-56
2022/12/30 01:22:47;;;;;;;15.75;3.58;;;;;;;;;;5059548;28;20020;-56
2022/12/30 01:25:12;;;;;;;17.00;2.78;;;;;;;;;;5059407;28;20012;-56
2022/12/30 01:27:38;;;;;;;20.73;3.65;;;;;;;;;;5059345;28;20108;-56
2022/12/30 01:30:03;;;;;;;26.80;3.65;;;;;;;;;;5059541;28;20021;-57
2022/12/30 01:32:29;;;;;;;17.23;3.03;;;;;;;;;;5059597;28;20020;-55
2022/12/30 01:34:54;;;;;;;22.13;3.50;;;;;;;;;;5056846;28;20116;-55
2022/12/30 01:37:20;;;;;;;18.60;3.30;;;;;;;;;;5060234;28;20013;-56
2022/12/30 01:39:45;;;;;;;17.58;3.70;;;;;;;;;;5058603;28;20017;-57
2022/12/30 01:42:19;;;;;;;12.80;2.65;;;;;;;;;;5054471;28;20021;-57
2022/12/30 01:44:51;;;;;;;17.50;3.17;;;;;;;;;;5054652;28;20051;-55
2022/12/30 01:47:16;;;;;;;15.95;3.25;;;;;;;;;;5059661;28;20051;-56
2022/12/30 01:49:42;;;;;;;20.17;4.90;;;;;;;;;;5058963;28;20436;-56
2022/12/30 01:52:07;;;;;;;28.65;3.80;;;;;;;;;;5056574;28;20029;-56
2022/12/30 01:54:33;;;;;;;13.75;3.65;;;;;;;;;;5057399;28;20208;-55
2022/12/30 01:56:58;;;;;;;17.13;3.70;;;;;;;;;;5056818;28;20213;-56
2022/12/30 01:59:26;;;;;;;21.17;3.38;;;;;;;;;;5058904;28;20556;-56
2022/12/30 02:01:51;;;;;;;20.48;3.42;;;;;;;;;;5057084;28;20032;-56
2022/12/30 02:04:20;;;;;;;19.15;3.45;;;;;;;;;;5059187;28;20421;-56
2022/12/30 02:07:05;;;;;;;18.13;3.10;;;;;;;;;;5058526;28;20411;-55
2022/12/30 02:09:31;;;;;;;22.50;3.55;;;;;;;;;;5056273;28;20037;-57
2022/12/30 02:11:56;;;;;;;28.55;4.15;;;;;;;;;;5044361;28;20071;-55
2022/12/30 02:14:21;;;;;;;24.30;4.22;;;;;;;;;;5059674;28;20036;-56
2022/12/30 02:16:46;;;;;;;19.85;3.20;;;;;;;;;;5058661;28;20013;-56
2022/12/30 02:19:27;;;;;;;23.77;3.40;;;;;;;;;;5058206;28;20059;-56
2022/12/30 02:21:54;;;;;;;17.90;3.85;;;;;;;;;;5073596;28;20047;-56
2022/12/30 02:24:38;;;;;;;25.20;3.50;;;;;;;;;;5057164;28;20028;-56
2022/12/30 02:27:07;;;;;;;31.85;3.88;;;;;;;;;;5071830;28;20013;-56
2022/12/30 02:29:32;;;;;;;21.77;3.88;;;;;;;;;;5053441;28;20052;-55
2022/12/30 02:32:16;;;;;;;26.20;3.63;;;;;;;;;;5058475;28;20179;-56
2022/12/30 02:35:00;;;;;;;16.52;3.60;;;;;;;;;;5057195;28;20036;-56
2022/12/30 02:37:28;;;;;;;14.70;2.95;;;;;;;;;;5055228;28;20020;-56
2022/12/30 02:40:07;;;;;;;21.02;3.17;;;;;;;;;;5058587;28;20528;-56
2022/12/30 02:45:25;;;;;;;19.48;3.42;;;;;;;;;;5051788;28;20030;-55
2022/12/30 02:48:09;;;;;;;24.20;3.73;;;;;;;;;;5055769;28;20056;-56
2022/12/30 02:53:20;;;;;;;22.13;3.42;;;;;;;;;;5058589;28;20040;-55
2022/12/30 02:55:45;;;;;;;18.77;3.38;;;;;;;;;;5056601;28;20403;-57
2022/12/30 02:58:10;;;;;;;26.25;3.30;;;;;;;;;;5058312;28;20073;-56
2022/12/30 03:06:30;;;;;;;21.75;3.25;;;;;;;;;;5057816;28;20662;-57
2022/12/30 03:08:55;;;;;;;20.38;3.33;;;;;;;;;;5054868;28;20032;-56
2022/12/30 03:11:20;;;;;;;21.85;3.65;;;;;;;;;;5057683;28;20590;-57
2022/12/30 03:13:48;;;;;;;23.90;3.20;;;;;;;;;;5056435;28;20240;-56
2022/12/30 03:16:17;;;;;;;19.45;3.60;;;;;;;;;;5054959;28;20107;-57
2022/12/30 03:18:43;;;;;;;18.27;3.22;;;;;;;;;;5058034;28;20028;-55
2022/12/30 03:21:08;;;;;;;16.35;3.38;;;;;;;;;;5055738;28;20113;-56
2022/12/30 03:29:02;;;;;;;22.85;3.83;;;;;;;;;;5053803;28;20426;-57
2022/12/30 03:31:27;;;;;;;24.02;3.13;;;;;;;;;;5057609;28;20125;-56
2022/12/30 03:33:52;;;;;;;20.90;3.65;;;;;;;;;;5057736;28;20021;-56
2022/12/30 03:36:24;;;;;;;20.05;3.60;;;;;;;;;;5055303;28;20032;-56
2022/12/30 03:38:54;;;;;;;19.17;3.72;;;;;;;;;;5055266;28;20020;-57
2022/12/30 03:41:19;;;;;;;18.25;2.97;;;;;;;;;;5053453;28;20499;-55
2022/12/30 03:43:45;;;;;;;25.50;3.45;;;;;;;;;;5058867;28;20341;-56
2022/12/30 03:46:10;;;;;;;15.43;2.70;;;;;;;;;;5055070;28;20039;-56
2022/12/30 03:48:35;;;;;;;28.38;3.70;;;;;;;;;;5055277;28;20032;-56
2022/12/30 03:51:00;;;;;;;36.28;3.75;;;;;;;;;;5056059;28;20028;-56
2022/12/30 03:53:25;;;;;;;18.63;3.83;;;;;;;;;;5057380;28;20513;-56
2022/12/30 03:55:51;;;;;;;22.48;3.50;;;;;;;;;;5051054;28;20324;-56
2022/12/30 03:58:16;;;;;;;32.47;3.83;;;;;;;;;;5056186;28;20111;-56
2022/12/30 04:00:41;;;;;;;23.60;3.67;;;;;;;;;;5057292;28;20108;-56
2022/12/30 04:03:07;;;;;;;20.70;3.92;;;;;;;;;;5056585;28;20025;-56
2022/12/30 04:05:32;;;;;;;19.85;4.05;;;;;;;;;;5056366;28;20067;-55
2022/12/30 04:07:57;;;;;;;22.38;3.08;;;;;;;;;;5057726;28;20570;-56
2022/12/30 04:10:22;;;;;;;19.42;4.18;;;;;;;;;;5057067;28;20399;-56
2022/12/30 04:12:48;;;;;;;18.05;3.70;;;;;;;;;;5057238;28;20262;-56
2022/12/30 04:15:13;;;;;;;21.92;3.70;;;;;;;;;;5056813;28;20013;-61
2022/12/30 04:17:38;;;;;;;21.27;4.22;;;;;;;;;;5057269;28;20020;-55
2022/12/30 04:20:04;;;;;;;26.52;3.85;;;;;;;;;;5057504;28;20312;-56
2022/12/30 04:22:29;;;;;;;14.70;3.22;;;;;;;;;;5057721;28;20024;-57
2022/12/30 04:24:54;;;;;;;21.92;3.70;;;;;;;;;;5057268;28;20213;-55
2022/12/30 04:27:19;;;;;;;20.42;3.88;;;;;;;;;;5056867;28;20328;-60
2022/12/30 04:29:45;;;;;;;17.92;3.55;;;;;;;;;;5052165;28;20772;-57
2022/12/30 04:32:10;;;;;;;19.55;3.40;;;;;;;;;;5056811;28;20086;-56
2022/12/30 04:34:35;;;;;;;18.10;3.40;;;;;;;;;;5054920;28;20729;-56
2022/12/30 04:37:00;;;;;;;16.10;4.13;;;;;;;;;;5061692;28;20549;-56
2022/12/30 04:39:26;;;;;;;14.38;3.22;;;;;;;;;;5060818;28;20035;-56
2022/12/30 04:41:51;;;;;;;15.57;3.47;;;;;;;;;;5057040;28;20407;-57
2022/12/30 04:44:16;;;;;;;18.90;3.72;;;;;;;;;;5055751;28;20123;-56
2022/12/30 04:46:41;;;;;;;24.90;3.90;;;;;;;;;;5060307;28;20020;-56
2022/12/30 04:49:15;;;;;;;21.98;3.65;;;;;;;;;;5060740;28;20289;-56
2022/12/30 04:51:41;;;;;;;20.58;4.35;;;;;;;;;;5061223;28;20457;-56
2022/12/30 04:54:06;;;;;;;26.10;4.00;;;;;;;;;;5061387;28;20074;-56
2022/12/30 04:56:31;;;;;;;19.63;3.38;;;;;;;;;;5060843;28;20220;-57
2022/12/30 04:58:57;;;;;;;26.70;4.53;;;;;;;;;;5060361;28;20043;-56
2022/12/30 05:01:22;;;;;;;18.52;3.70;;;;;;;;;;5058120;28;20480;-56
2022/12/30 05:03:47;;;;;;;25.83;4.03;;;;;;;;;;5060351;28;20537;-56
2022/12/30 05:06:12;;;;;;;22.48;4.05;;;;;;;;;;5059224;28;20033;-56
2022/12/30 05:08:40;;;;;;;17.73;3.75;;;;;;;;;;5072832;28;20102;-56
2022/12/30 05:11:06;;;;;;;19.23;3.88;;;;;;;;;;5060497;28;20300;-56
2022/12/30 05:13:31;;;;;;;22.08;3.33;;;;;;;;;;5060744;28;20098;-57
2022/12/30 05:15:56;;;;;;;16.02;3.25;;;;;;;;;;5057190;28;20374;-56
2022/12/30 05:18:21;;;;;;;18.80;4.55;;;;;;;;;;5060207;28;20529;-57
2022/12/30 05:20:47;;;;;;;18.67;3.50;;;;;;;;;;5060294;28;20055;-55
2022/12/30 05:26:15;;;;;;;22.50;3.25;;;;;;;;;;5057609;28;20129;-56
2022/12/30 05:28:40;;;;;;;19.95;3.30;;;;;;;;;;5059477;28;20206;-56
2022/12/30 05:31:06;;;;;;;22.83;3.20;;;;;;;;;;5059857;28;20052;-56
2022/12/30 05:33:31;;;;;;;21.38;3.25;;;;;;;;;;5060808;28;20239;-57
2022/12/30 05:35:56;;;;;;;20.58;4.10;;;;;;;;;;5060827;28;20035;-56
2022/12/30 05:38:21;;;;;;;18.98;3.22;;;;;;;;;;5059739;28;20470;-56
2022/12/30 05:40:46;;;;;;;21.75;3.30;;;;;;;;;;5060177;28;20086;-57
2022/12/30 05:43:12;;;;;;;19.13;4.05;;;;;;;;;;5050367;28;20020;-57
2022/12/30 05:45:37;;;;;;;21.58;3.17;;;;;;;;;;5059660;28;20475;-57
2022/12/30 05:48:02;;;;;;;27.33;4.35;;;;;;;;;;5058908;28;20544;-56
2022/12/30 05:50:28;;;;;;;29.38;4.20;;;;;;;;;;5059690;28;20050;-56
2022/12/30 05:52:53;;;;;;;16.23;3.17;;;;;;;;;;5058891;28;20039;-56
2022/12/30 05:55:18;;;;;;;21.98;4.07;;;;;;;;;;5059546;28;20029;-56
2022/12/30 05:57:43;;;;;;;20.88;3.70;;;;;;;;;;5058521;28;20024;-55
2022/12/30 06:00:09;;;;;;;17.33;3.00;;;;;;;;;;5057836;28;20129;-57
2022/12/30 06:02:34;;;;;;;19.88;3.55;;;;;;;;;;5058837;28;20167;-56
2022/12/30 06:04:59;;;;;;;19.20;4.00;;;;;;;;;;5059022;28;20020;-56
2022/12/30 06:07:25;;;;;;;19.98;3.10;;;;;;;;;;5059445;28;20181;-56
2022/12/30 06:09:50;;;;;;;16.40;3.40;;;;;;;;;;5058956;28;20025;-56
2022/12/30 06:12:15;;;;;;;19.05;2.70;;;;;;;;;;5059034;28;20147;-57
2022/12/30 06:14:41;;;;;;;14.45;3.17;;;;;;;;;;5059137;28;20166;-55
2022/12/30 06:17:06;;;;;;;13.20;2.97;;;;;;;;;;5058326;28;20117;-56
2022/12/30 06:19:31;;;;;;;14.35;3.20;;;;;;;;;;5058952;28;20065;-56
2022/12/30 06:21:56;;;;;;;19.48;3.83;;;;;;;;;;5058962;28;20063;-56
2022/12/30 06:24:22;;;;;;;21.17;4.28;;;;;;;;;;5059235;28;20342;-55
2022/12/30 06:26:47;;;;;;;19.85;5.85;;;;;;;;;;5059058;28;20029;-56
2022/12/30 06:29:12;;;;;;;28.15;4.07;;;;;;;;;;5057411;28;20577;-56
2022/12/30 06:31:37;;;;;;;16.35;3.47;;;;;;;;;;5058574;28;20020;-55
2022/12/30 06:34:03;;;;;;;18.83;3.40;;;;;;;;;;5058940;28;20056;-57
2022/12/30 06:36:28;;;;;;;19.67;3.08;;;;;;;;;;5058230;28;20103;-56
2022/12/30 06:38:53;;;;;;;14.60;2.90;;;;;;;;;;5058226;28;20017;-56
2022/12/30 06:41:18;;;;;;;17.73;3.25;;;;;;;;;;5055909;28;20317;-56
2022/12/30 06:43:43;;;;;;;16.60;3.17;;;;;;;;;;5057318;28;20052;-56
2022/12/30 06:46:09;;;;;;;20.40;3.75;;;;;;;;;;5058433;28;20016;-55
2022/12/30 06:48:34;;;;;;;13.82;2.72;;;;;;;;;;5057837;28;20032;-55
2022/12/30 06:50:59;;;;;;;17.55;3.30;;;;;;;;;;5058219;28;20328;-56
2022/12/30 06:53:25;;;;;;;22.15;4.60;;;;;;;;;;5058383;28;20070;-56
2022/12/30 06:55:50;;;;;;;19.80;3.92;;;;;;;;;;5058084;28;20506;-55
2022/12/30 06:58:15;;;;;;;17.27;3.17;;;;;;;;;;5056904;28;20089;-56
2022/12/30 07:00:40;;;;;;;19.67;3.13;;;;;;;;;;5056592;28;20030;-57
2022/12/30 07:03:06;;;;;;;14.40;3.30;;;;;;;;;;5056986;28;20025;-56
2022/12/30 07:05:31;;;;;;;13.40;2.78;;;;;;;;;;5057991;28;20044;-56
2022/12/30 07:07:56;;;;;;;12.10;3.17;;;;;;;;;;5057901;28;20051;-57
2022/12/30 07:10:21;;;;;;;14.02;2.80;;;;;;;;;;5056959;28;20560;-56
2022/12/30 07:12:47;;;;;;;14.75;3.65;;;;;;;;;;5058621;28;20089;-56
2022/12/30 07:15:12;;;;;;;18.15;4.13;;;;;;;;;;5057449;28;20462;-55
2022/12/30 07:17:37;;;;;;;15.05;3.25;;;;;;;;;;5057304;28;20509;-57
2022/12/30 07:20:03;;;;;;;10.90;2.38;;;;;;;;;;5056234;28;20020;-55
2022/12/30 07:22:28;;;;;;;12.70;3.13;;;;;;;;;;5058566;28;20085;-59
2022/12/30 07:24:53;;;;;;;14.48;3.40;;;;;;;;;;5055734;28;20545;-55
2022/12/30 07:27:19;;;;;;;11.40;2.83;;;;;;;;;;5055732;28;20544;-57
2022/12/30 07:29:44;;;;;;;11.38;2.95;;;;;;;;;;5057995;28;20028;-55
2022/12/30 07:32:09;;;;;;;14.75;3.83;;;;;;;;;;5055943;28;20474;-54
2022/12/30 07:34:36;;;;;;;10.43;3.03;;;;;;;;;;5055532;28;20020;-55
2022/12/30 07:37:02;;;;;;;14.07;3.28;;;;;;;;;;5057851;28;20032;-56
2022/12/30 07:39:29;;;;;;;13.48;3.50;;;;;;;;;;5058006;28;20321;-57
2022/12/30 07:41:54;;;;;;;15.48;3.45;;;;;;;;;;5056829;28;20123;-56
2022/12/30 07:44:19;;;;;;;10.32;2.92;;;;;;;;;;5050446;28;20627;-55
2022/12/30 07:46:45;;;;;;;10.82;3.35;;;;;;;;;;5058512;28;20024;-56
2022/12/30 07:49:10;;;;;;;16.00;3.25;;;;;;;;;;5058169;28;20119;-57
2022/12/30 07:51:35;;;;;;;10.20;2.97;;;;;;;;;;5058118;28;20054;-54
2022/12/30 07:54:00;;;;;;;11.02;2.75;;;;;;;;;;5056005;28;20119;-57
2022/12/30 07:56:26;;;;;;;10.30;2.72;;;;;;;;;;5057771;28;20017;-57
2022/12/30 07:58:54;;;;;;;9.95;2.75;;;;;;;;;;5056396;28;20099;-54
2022/12/30 08:01:19;;;;;;;10.27;2.67;;;;;;;;;;5057761;28;20024;-55
2022/12/30 08:03:44;;;;;;;14.35;4.43;;;;;;;;;;5057509;28;20031;-54
2022/12/30 08:06:10;;;;;;;11.15;3.42;;;;;;;;;;5056744;28;20047;-58
2022/12/30 08:08:36;;;;;;;12.63;2.72;;;;;;;;;;5055767;28;20501;-57
2022/12/30 08:11:01;;;;;;;12.23;4.22;;;;;;;;;;5056606;28;20055;-57
2022/12/30 08:13:27;;;;;;;13.82;2.88;;;;;;;;;;5057033;28;20020;-57
2022/12/30 08:15:52;;;;;;;9.32;2.72;;;;;;;;;;5053624;28;20024;-54
2022/12/30 08:18:17;;;;;;;13.00;3.45;;;;;;;;;;5056164;28;20438;-56
2022/12/30 08:20:42;;;;;;;14.40;2.95;;;;;;;;;;5057350;28;20473;-54
2022/12/30 08:23:08;;;;;;;8.38;3.00;;;;;;;;;;5056718;28;20039;-55
2022/12/30 08:25:33;;;;;;;14.20;3.60;;;;;;;;;;5055692;28;20380;-54
2022/12/30 08:27:58;;;;;;;13.23;3.20;;;;;;;;;;5056979;28;20588;-58
2022/12/30 08:30:24;;;;;;;15.05;3.50;;;;;;;;;;5056756;28;20524;-56
2022/12/30 08:32:49;;;;;;;8.23;2.88;;;;;;;;;;5056923;28;20471;-55
2022/12/30 08:35:14;;;;;;;10.68;3.42;;;;;;;;;;5057316;28;20520;-57
2022/12/30 08:37:40;;;;;;;9.93;3.00;;;;;;;;;;5055419;28;20693;-58
2022/12/30 08:40:06;;;;;;;8.45;2.60;;;;;;;;;;5056728;28;20449;-56
2022/12/30 08:42:33;;;;;;;11.45;3.00;;;;;;;;;;5051692;28;20025;-57
2022/12/30 08:44:58;;;;;;;9.40;2.97;;;;;;;;;;5054455;28;20082;-57
2022/12/30 08:47:24;;;;;;;11.00;3.08;;;;;;;;;;5056657;28;20658;-56
2022/12/30 08:49:49;;;;;;;9.00;3.45;;;;;;;;;;5055800;28;20066;-57
2022/12/30 08:52:14;;;;;;;7.72;2.65;;;;;;;;;;5056222;28;20091;-57
2022/12/30 08:54:39;;;;;;;11.55;3.28;;;;;;;;;;5054410;28;20041;-57
2022/12/30 08:57:06;;;;;;;9.32;3.63;;;;;;;;;;5056736;28;20025;-57
2022/12/30 08:59:31;;;;;;;7.45;2.53;;;;;;;;;;5056627;28;20024;-56
2022/12/30 09:01:57;;;;;;;10.18;2.92;;;;;;;;;;5055706;28;20086;-57
2022/12/30 09:04:22;;;;;;;17.35;3.53;;;;;;;;;;5055647;28;20013;-57
2022/12/30 09:06:47;;;;;;;8.13;2.92;;;;;;;;;;5057120;28;20081;-56
2022/12/30 09:09:13;;;;;;;14.85;3.70;;;;;;;;;;5052631;28;20198;-56
2022/12/30 09:11:38;;;;;;;6.03;2.20;;;;;;;;;;5054497;28;20028;-57
2022/12/30 09:14:04;;;;;;;10.57;2.90;;;;;;;;;;5057169;28;20043;-56
2022/12/30 09:16:29;;;;;;;8.45;2.38;;;;;;;;;;5056723;28;20024;-53
2022/12/30 09:18:55;;;;;;;21.98;3.28;;;;;;;;;;5055731;28;20031;-57
2022/12/30 09:21:20;;;;;;;8.10;2.70;;;;;;;;;;5056148;28;20622;-55
2022/12/30 09:23:45;;;;;;;9.90;2.88;;;;;;;;;;5061362;28;20025;-55
2022/12/30 09:26:14;;;;;;;10.90;3.03;;;;;;;;;;5058507;28;20017;-57
2022/12/30 09:28:39;;;;;;;9.45;2.70;;;;;;;;;;5059547;28;20335;-54
2022/12/30 09:31:05;;;;;;;9.27;2.97;;;;;;;;;;5059586;28;20028;-56
2022/12/30 09:33:30;;;;;;;12.35;3.10;;;;;;;;;;5060974;28;20028;-56
2022/12/30 09:35:55;;;;;;;16.85;2.97;;;;;;;;;;5059914;28;20024;-55
2022/12/30 09:38:21;;;;;;;11.55;2.95;;;;;;;;;;5059586;28;20047;-56
2022/12/30 09:40:55;;;;;;;11.02;2.90;;;;;;;;;;5059489;28;20017;-55
2022/12/30 09:43:35;;;;;;;10.45;2.60;;;;;;;;;;5048765;28;20044;-54
2022/12/30 09:46:00;;;;;;;;;;;;;;;;;;5059936;28;20543;-54
2022/12/30 09:48:26;;;;;;;8.07;2.37;;;;;;;;;;5059557;28;19916;-55
2022/12/30 09:50:58;;;;;;;6.35;2.40;;;;;;;;;;5058696;28;20273;-55
2022/12/30 09:53:31;;;;;;;16.67;3.70;;;;;;;;;;5058049;28;20039;-54
2022/12/30 09:55:57;;;;;;;22.58;8.57;;;;;;;;;;5055567;28;20036;-55
2022/12/30 09:58:24;;;;;;;8.90;2.28;;;;;;;;;;5053437;28;20293;-55
2022/12/30 10:00:49;;;;;;;9.50;2.75;;;;;;;;;;5053568;28;20480;-54
2022/12/30 10:03:15;;;;;;;14.65;4.28;;;;;;;;;;5058201;28;20024;-55
2022/12/30 10:05:40;;;;;;;6.35;2.22;;;;;;;;;;5059875;28;20458;-56
2022/12/30 10:08:09;;;;;;;7.93;2.15;;;;;;;;;;5074571;28;20301;-56
2022/12/30 10:10:36;;;;;;;15.38;2.80;;;;;;;;;;5052945;28;20545;-56
2022/12/30 10:13:11;;;;;;;8.65;2.80;;;;;;;;;;5057684;28;20035;-56
2022/12/30 10:15:51;;;;;;;14.70;2.83;;;;;;;;;;5059126;28;20028;-57
2022/12/30 10:18:24;;;;;;;9.88;3.15;;;;;;;;;;5057125;28;20483;-56
2022/12/30 10:20:49;;;;;;;10.95;2.67;;;;;;;;;;5054807;28;20075;-55
2022/12/30 10:23:30;;;;;;;12.07;3.15;;;;;;;;;;5059723;28;20024;-57
2022/12/30 10:26:14;;;;;;;6.40;2.38;;;;;;;;;;5057704;28;20071;-56
2022/12/30 10:28:41;;;;;;;7.82;2.30;;;;;;;;;;5055885;28;20410;-57
2022/12/30 10:31:09;;;;;;;10.98;3.00;;;;;;;;;;5056886;28;20315;-55
2022/12/30 10:33:34;;;;;;;9.88;2.50;;;;;;;;;;5056828;28;20508;-56
2022/12/30 10:36:08;;;;;;;7.22;2.25;;;;;;;;;;5058994;28;20020;-57
2022/12/30 10:38:33;;;;;;;10.48;2.22;;;;;;;;;;5049523;28;20134;-56
2022/12/30 10:41:04;;;;;;;10.48;3.28;;;;;;;;;;5055904;28;20472;-55
2022/12/30 10:43:30;;;;;;;9.77;2.40;;;;;;;;;;5054092;28;20104;-56
2022/12/30 10:46:11;;;;;;;8.98;2.25;;;;;;;;;;5057918;28;20338;-55
2022/12/30 10:48:36;;;;;;;11.10;2.30;;;;;;;;;;5054066;28;20401;-55
2022/12/30 10:51:01;;;;;;;8.85;2.55;;;;;;;;;;5054765;28;20301;-55
2022/12/30 10:53:26;;;;;;;6.82;2.38;;;;;;;;;;5053948;28;20409;-54
2022/12/30 10:55:52;;;;;;;9.65;2.30;;;;;;;;;;5056009;28;20406;-56
2022/12/30 10:58:26;;;;;;;12.57;2.47;;;;;;;;;;5058002;28;20020;-55
2022/12/30 11:00:51;;;;;;;6.13;2.03;;;;;;;;;;5057341;28;20024;-55
2022/12/30 11:03:37;;;;;;;9.07;2.25;;;;;;;;;;5055306;28;20036;-56
2022/12/30 11:06:15;;;;;;;13.18;2.78;;;;;;;;;;5056639;28;20486;-55
2022/12/30 11:08:41;;;;;;;8.50;2.20;;;;;;;;;;5058144;28;20040;-55
2022/12/30 11:11:06;;;;;;;12.23;2.75;;;;;;;;;;5056655;28;20025;-55
2022/12/30 11:16:16;;;;;;;10.57;2.33;;;;;;;;;;5058079;28;20646;-55
2022/12/30 11:18:45;;;;;;;8.18;2.45;;;;;;;;;;5056737;28;20494;-56
2022/12/30 11:21:10;;;;;;;9.27;2.00;;;;;;;;;;5056102;28;20051;-55
2022/12/30 11:23:36;;;;;;;12.65;2.83;;;;;;;;;;5056967;28;20028;-55
2022/12/30 11:26:02;;;;;;;10.50;2.55;;;;;;;;;;5051554;28;20241;-56
2022/12/30 11:28:30;;;;;;;7.45;2.72;;;;;;;;;;5057731;28;20108;-55
2022/12/30 11:30:56;;;;;;;9.68;2.40;;;;;;;;;;5056248;28;20029;-55
2022/12/30 11:33:37;;;;;;;12.68;2.20;;;;;;;;;;5057640;28;20033;-57
2022/12/30 11:36:13;;;;;;;10.40;2.13;;;;;;;;;;5057696;28;20104;-57
2022/12/30 11:38:39;;;;;;;15.27;2.85;;;;;;;;;;5055811;28;20082;-55
2022/12/30 11:41:16;;;;;;;8.98;2.35;;;;;;;;;;5057399;28;20031;-56
2022/12/30 11:43:43;;;;;;;9.60;2.72;;;;;;;;;;5052253;28;20390;-56
2022/12/30 11:46:09;;;;;;;11.13;2.22;;;;;;;;;;5056160;28;20020;-55
2022/12/30 11:48:36;;;;;;;8.85;3.05;;;;;;;;;;5057682;28;20051;-57
2022/12/30 11:51:03;;;;;;;12.48;2.70;;;;;;;;;;5056504;28;20077;-57
2022/12/30 11:53:31;;;;;;;10.45;3.28;;;;;;;;;;5049038;28;20033;-55
2022/12/30 11:55:56;;;;;;;11.98;2.67;;;;;;;;;;5056523;28;20051;-57
2022/12/30 11:58:22;;;;;;;10.73;2.83;;;;;;;;;;5054993;28;20059;-57
2022/12/30 12:00:48;;;;;;;7.82;2.50;;;;;;;;;;5072212;28;20205;-56
2022/12/30 12:03:14;;;;;;;16.92;3.97;;;;;;;;;;5037835;28;20345;-56
2022/12/30 12:05:41;;;;;;;6.20;2.38;;;;;;;;;;5057928;28;20041;-56
2022/12/30 12:08:14;;;;;;;12.95;2.88;;;;;;;;;;5057424;28;20084;-55
2022/12/30 12:10:39;;;;;;;12.07;2.95;;;;;;;;;;5056044;28;20086;-55
2022/12/30 12:13:23;;;;;;;8.98;2.15;;;;;;;;;;5054428;28;20506;-55
2022/12/30 12:15:49;;;;;;;10.13;2.20;;;;;;;;;;5036636;28;20017;-56
2022/12/30 12:18:28;;;;;;;6.35;2.22;;;;;;;;;;5054823;28;20096;-56
2022/12/30 12:21:04;;;;;;;6.95;2.25;;;;;;;;;;5053275;28;20020;-55
2022/12/30 12:23:29;;;;;;;10.88;1.90;;;;;;;;;;5055476;28;20031;-56
2022/12/30 12:26:05;;;;;;;10.07;1.90;;;;;;;;;;5056843;28;20107;-55
2022/12/30 12:28:30;;;;;;;8.77;2.33;;;;;;;;;;5053189;28;20087;-55
2022/12/30 12:31:14;;;;;;;11.35;2.50;;;;;;;;;;5055720;28;20305;-54
2022/12/30 12:33:52;;;;;;;5.03;1.85;;;;;;;;;;5052632;28;20223;-55
2022/12/30 12:36:23;;;;;;;12.95;2.55;;;;;;;;;;5053870;28;20232;-56
2022/12/30 12:38:53;;;;;;;12.73;2.42;;;;;;;;;;5056583;28;20097;-56
2022/12/30 12:41:37;;;;;;;10.75;2.72;;;;;;;;;;5052051;28;20119;-55
2022/12/30 12:44:02;;;;;;;11.75;2.88;;;;;;;;;;5050008;28;20451;-55
2022/12/30 12:46:30;;;;;;;9.32;2.65;;;;;;;;;;5057141;28;20538;-56
2022/12/30 12:49:01;;;;;;;9.43;3.00;;;;;;;;;;5057610;28;20320;-55
2022/12/30 12:51:40;;;;;;;9.38;2.20;;;;;;;;;;5055425;28;20402;-54
2022/12/30 12:54:10;;;;;;;14.70;2.40;;;;;;;;;;5056388;28;20028;-55
2022/12/30 12:56:44;;;;;;;9.45;2.13;;;;;;;;;;5054133;28;20021;-55
2022/12/30 12:59:09;;;;;;;9.50;1.90;;;;;;;;;;5060415;28;20085;-55
2022/12/30 13:01:38;;;;;;;7.63;1.90;;;;;;;;;;5060459;28;20439;-56
2022/12/30 13:04:19;;;;;;;7.68;2.17;;;;;;;;;;5057442;28;20109;-56
2022/12/30 13:06:54;;;;;;;6.75;1.83;;;;;;;;;;5057661;28;20252;-56
2022/12/30 13:09:22;;;;;;;8.90;2.00;;;;;;;;;;5057217;28;20179;-55
2022/12/30 13:11:56;;;;;;;6.25;1.67;;;;;;;;;;5059851;28;20308;-55
2022/12/30 13:14:24;;;;;;;10.40;2.15;;;;;;;;;;5053539;28;20013;-56
2022/12/30 13:16:51;;;;;;;8.07;2.15;;;;;;;;;;5060627;28;20305;-55
2022/12/30 13:19:18;;;;;;;9.90;1.90;;;;;;;;;;5057758;28;20470;-55
2022/12/30 13:21:44;;;;;;;9.82;2.38;;;;;;;;;;5057274;28;20057;-55
2022/12/30 13:24:10;;;;;;;5.10;2.10;;;;;;;;;;5058750;28;20111;-55
2022/12/30 13:26:35;;;;;;;6.22;2.50;;;;;;;;;;5057916;28;20016;-55
2022/12/30 13:29:00;;;;;;;10.80;2.03;;;;;;;;;;5060144;28;20296;-57
2022/12/30 13:31:35;;;;;;;4.88;1.63;;;;;;;;;;5055601;28;20405;-56
2022/12/30 13:34:15;;;;;;;4.00;1.50;;;;;;;;;;5059941;28;20036;-56
2022/12/30 13:36:40;;;;;;;8.70;2.35;;;;;;;;;;5059572;28;20059;-55
2022/12/30 13:39:12;;;;;;;8.85;2.10;;;;;;;;;;5060653;28;20040;-55
2022/12/30 13:42:06;;;;;;;9.38;2.58;;;;;;;;;;5059809;28;20386;-55
2022/12/30 13:44:35;;;;;;;11.85;1.70;;;;;;;;;;5054162;28;20041;-57
2022/12/30 13:47:00;;;;;;;7.55;1.92;;;;;;;;;;5055638;28;20024;-56
2022/12/30 13:49:29;;;;;;;12.18;2.10;;;;;;;;;;5059820;28;20074;-54
2022/12/30 13:51:56;;;;;;;6.47;2.00;;;;;;;;;;5060339;28;20425;-57
2022/12/30 13:54:21;;;;;;;5.55;1.85;;;;;;;;;;5057412;28;20027;-56
2022/12/30 13:56:49;;;;;;;8.32;2.30;;;;;;;;;;5059523;28;20324;-56
2022/12/30 13:59:20;;;;;;;8.48;2.30;;;;;;;;;;5055810;28;20023;-56
2022/12/30 14:01:45;;;;;;;9.15;2.40;;;;;;;;;;5059174;28;20017;-59
2022/12/30 14:04:10;;;;;;;7.40;2.25;;;;;;;;;;5057028;28;20012;-58
2022/12/30 14:06:42;;;;;;;8.65;2.05;;;;;;;;;;5059111;28;20504;-58
2022/12/30 14:09:18;;;;;;;8.27;2.00;;;;;;;;;;5057476;28;20098;-57
2022/12/30 14:12:02;;;;;;;8.07;2.15;;;;;;;;;;5055314;28;20021;-56
2022/12/30 14:14:27;;;;;;;8.30;2.50;;;;;;;;;;5055428;28;20047;-57
2022/12/30 14:16:57;;;;;;;5.20;2.20;;;;;;;;;;5058509;28;20021;-57
2022/12/30 14:19:28;;;;;;;6.57;2.38;;;;;;;;;;5058937;28;20036;-55
2022/12/30 14:21:54;;;;;;;8.55;2.08;;;;;;;;;;5058248;28;20102;-58
2022/12/30 14:24:33;;;;;;;6.85;2.17;;;;;;;;;;5059598;28;20463;-57
2022/12/30 14:26:58;;;;;;;10.18;2.70;;;;;;;;;;5069525;28;20039;-57
2022/12/30 14:29:27;;;;;;;9.82;2.10;;;;;;;;;;5059393;28;20033;-57
2022/12/30 14:31:57;;;;;;;6.63;2.27;;;;;;;;;;5056982;28;20031;-57
2022/12/30 14:34:38;;;;;;;5.22;1.90;;;;;;;;;;5059745;28;20025;-57
2022/12/30 14:37:05;;;;;;;3.92;1.88;;;;;;;;;;5057643;28;20024;-58
2022/12/30 14:39:30;;;;;;;5.88;1.92;;;;;;;;;;5040117;28;20346;-57
2022/12/30 14:41:56;;;;;;;8.40;2.35;;;;;;;;;;5051552;28;20016;-56
2022/12/30 14:44:22;;;;;;;6.30;2.22;;;;;;;;;;5057158;28;20062;-58
2022/12/30 14:46:55;;;;;;;6.68;2.10;;;;;;;;;;5057998;28;20388;-58
2022/12/30 14:49:36;;;;;;;8.25;2.45;;;;;;;;;;5055614;28;20025;-58
2022/12/30 14:52:09;;;;;;;7.28;2.20;;;;;;;;;;5056974;28;20265;-55
2022/12/30 14:54:44;;;;;;;6.03;2.15;;;;;;;;;;5055449;28;20021;-56
2022/12/30 14:57:11;;;;;;;6.40;2.63;;;;;;;;;;5056448;28;20313;-56
2022/12/30 14:59:43;;;;;;;4.43;1.58;;;;;;;;;;5058196;28;20366;-56
2022/12/30 15:02:10;;;;;;;9.35;3.00;;;;;;;;;;5058871;28;20016;-56
2022/12/30 15:04:35;;;;;;;9.50;2.67;;;;;;;;;;5057903;28;20531;-57
2022/12/30 15:07:01;;;;;;;5.63;2.50;;;;;;;;;;5039688;28;20133;-60
2022/12/30 15:09:26;;;;;;;8.30;3.67;;;;;;;;;;5058065;28;20402;-58
2022/12/30 15:11:53;;;;;;;4.60;2.78;;;;;;;;;;5056642;28;20039;-58
2022/12/30 15:14:18;;;;;;;7.88;2.95;;;;;;;;;;5059063;28;20067;-58
2022/12/30 15:16:43;;;;;;;8.18;2.92;;;;;;;;;;5055050;28;20458;-58
2022/12/30 15:19:20;;;;;;;8.55;3.15;;;;;;;;;;5058295;28;20031;-58
2022/12/30 15:21:45;;;;;;;6.30;3.47;;;;;;;;;;5058466;28;20086;-57
2022/12/30 15:24:12;;;;;;;8.93;3.35;;;;;;;;;;5057964;28;20359;-58
2022/12/30 15:26:55;;;;;;;8.30;3.33;;;;;;;;;;5057155;28;20033;-56
2022/12/30 15:29:21;;;;;;;5.32;2.88;;;;;;;;;;5055489;28;20032;-58